createdAt,value
2022-12-29T00:02:03.650Z,8.57
2022-12-29T00:04:31.138Z,5.90
2022-12-29T00:06:58.951Z,5.83
2022-12-29T00:09:27.738Z,5.53
2022-12-29T00:11:56.489Z,4.47
2022-12-29T00:14:41.486Z,4.17
2022-12-29T00:17:08.945Z,4.03
2022-12-29T00:19:53.955Z,3.00
2022-12-29T00:22:39.205Z,2.73
2022-12-29T00:25:28.001Z,4.13
2022-12-29T00:28:14.565Z,4.70
2022-12-29T00:30:59.915Z,2.87
2022-12-29T00:33:47.476Z,2.67
2022-12-29T00:36:18.752Z,3.83
2022-12-29T00:39:03.987Z,2.80
2022-12-29T00:41:49.323Z,3.33
2022-12-29T00:44:18.217Z,5.30
2022-12-29T00:46:45.846Z,4.97
2022-12-29T00:49:32.891Z,3.13
2022-12-29T00:52:03.062Z,4.90
2022-12-29T00:54:31.312Z,4.60
2022-12-29T00:56:58.764Z,3.73
2022-12-29T00:59:27.710Z,3.03
2022-12-29T01:01:58.649Z,4.03
2022-12-29T01:04:27.748Z,4.73
2022-12-29T01:06:55.199Z,4.00
2022-12-29T01:09:40.348Z,12.87
2022-12-29T01:12:09.017Z,8.67
2022-12-29T01:14:38.736Z,5.47
2022-12-29T01:17:06.430Z,4.43
2022-12-29T01:19:33.935Z,2.13
2022-12-29T01:22:01.492Z,3.43
2022-12-29T01:24:28.914Z,2.70
2022-12-29T01:26:56.390Z,3.93
2022-12-29T01:29:24.066Z,4.87
2022-12-29T01:31:52.873Z,6.03
2022-12-29T01:34:20.336Z,3.70
2022-12-29T01:36:47.838Z,3.10
2022-12-29T01:39:15.211Z,7.57
2022-12-29T01:41:43.683Z,2.83
2022-12-29T01:44:50.310Z,3.00
2022-12-29T01:47:27.375Z,3.47
2022-12-29T01:49:56.885Z,3.20
2022-12-29T01:52:26.140Z,3.43
2022-12-29T01:54:56.848Z,4.23
2022-12-29T01:57:28.047Z,3.80
2022-12-29T01:59:59.824Z,2.87
2022-12-29T02:02:33.243Z,4.10
2022-12-29T02:05:05.200Z,4.87
2022-12-29T02:07:33.272Z,3.43
2022-12-29T02:10:03.670Z,5.90
2022-12-29T02:12:31.065Z,2.70
2022-12-29T02:15:02.127Z,3.50
2022-12-29T02:17:43.552Z,3.50
2022-12-29T02:20:55.736Z,3.13
2022-12-29T02:23:44.491Z,2.70
2022-12-29T02:26:29.041Z,6.50
2022-12-29T02:29:21.705Z,3.57
2022-12-29T02:31:55.747Z,3.77
2022-12-29T02:34:27.219Z,3.40
2022-12-29T02:37:05.426Z,2.53
2022-12-29T02:39:40.877Z,5.27
2022-12-29T02:42:15.225Z,3.30
2022-12-29T02:47:52.908Z,3.17
2022-12-29T02:50:27.155Z,3.37
2022-12-29T02:53:02.188Z,3.50
2022-12-29T02:55:29.036Z,3.87
2022-12-29T02:58:18.075Z,2.27
2022-12-29T03:01:03.214Z,3.93
2022-12-29T03:03:43.872Z,2.87
2022-12-29T03:06:24.362Z,3.50
2022-12-29T03:08:58.458Z,2.40
2022-12-29T03:11:52.859Z,3.40
2022-12-29T03:14:48.600Z,3.07
2022-12-29T03:17:26.410Z,2.63
2022-12-29T03:20:03.187Z,3.17
2022-12-29T03:22:34.526Z,4.00
2022-12-29T03:25:05.665Z,2.97
2022-12-29T03:27:37.302Z,2.93
2022-12-29T03:30:07.707Z,2.73
2022-12-29T03:32:38.148Z,2.10
2022-12-29T03:35:10.239Z,2.87
2022-12-29T03:37:42.406Z,4.70
2022-12-29T03:40:10.864Z,2.60
2022-12-29T03:42:40.024Z,2.43
2022-12-29T03:45:09.282Z,4.87
2022-12-29T03:47:36.884Z,3.13
2022-12-29T03:50:04.819Z,3.13
2022-12-29T03:52:33.540Z,2.00
2022-12-29T03:55:01.608Z,3.63
2022-12-29T03:57:29.051Z,2.30
2022-12-29T03:59:56.527Z,2.43
2022-12-29T04:02:24.808Z,5.23
2022-12-29T04:04:52.504Z,3.30
2022-12-29T04:07:19.917Z,1.87
2022-12-29T04:09:48.703Z,3.07
2022-12-29T04:12:16.339Z,2.70
2022-12-29T04:14:44.511Z,2.73
2022-12-29T04:17:11.940Z,23.30
2022-12-29T04:19:39.390Z,3.00
2022-12-29T04:22:06.851Z,3.53
2022-12-29T04:24:34.896Z,2.60
2022-12-29T04:27:03.652Z,2.23
2022-12-29T04:29:31.084Z,2.00
2022-12-29T04:31:58.525Z,2.40
2022-12-29T04:34:26.011Z,2.03
2022-12-29T04:36:53.481Z,2.33
2022-12-29T04:39:21.037Z,4.10
2022-12-29T04:41:48.459Z,3.67
2022-12-29T04:44:17.371Z,1.90
2022-12-29T04:46:45.691Z,2.90
2022-12-29T04:49:13.117Z,2.33
2022-12-29T04:51:40.532Z,1.90
2022-12-29T04:54:07.998Z,2.10
2022-12-29T04:56:35.544Z,2.47
2022-12-29T04:59:03.010Z,2.60
2022-12-29T05:01:31.800Z,2.50
2022-12-29T05:03:59.340Z,4.07
2022-12-29T05:06:26.935Z,1.60
2022-12-29T05:08:54.419Z,1.97
2022-12-29T05:11:21.805Z,1.77
2022-12-29T05:13:49.326Z,1.90
2022-12-29T05:16:16.752Z,1.93
2022-12-29T05:18:46.210Z,2.17
2022-12-29T05:21:13.660Z,4.37
2022-12-29T05:23:41.118Z,3.33
2022-12-29T05:26:08.558Z,1.90
2022-12-29T05:28:36.010Z,3.37
2022-12-29T05:31:03.564Z,4.53
2022-12-29T05:33:31.046Z,2.20
2022-12-29T05:36:05.832Z,2.20
2022-12-29T05:38:33.275Z,1.87
2022-12-29T05:41:00.653Z,4.20
2022-12-29T05:43:28.077Z,2.80
2022-12-29T05:45:56.556Z,3.57
2022-12-29T05:48:23.975Z,2.23
2022-12-29T05:50:52.216Z,2.20
2022-12-29T05:53:21.197Z,1.97
2022-12-29T05:55:49.625Z,2.00
2022-12-29T05:58:17.508Z,2.80
2022-12-29T06:00:45.259Z,3.67
2022-12-29T06:03:13.149Z,2.23
2022-12-29T06:05:40.718Z,4.10
2022-12-29T06:08:08.167Z,1.93
2022-12-29T06:10:36.964Z,2.00
2022-12-29T06:13:04.783Z,1.97
2022-12-29T06:15:32.209Z,1.70
2022-12-29T06:17:59.995Z,2.23
2022-12-29T06:20:27.495Z,3.30
2022-12-29T06:22:54.923Z,2.47
2022-12-29T06:25:22.399Z,1.13
2022-12-29T06:27:51.231Z,2.77
2022-12-29T06:30:18.825Z,2.47
2022-12-29T06:32:46.875Z,1.50
2022-12-29T06:35:14.278Z,1.63
2022-12-29T06:37:41.697Z,1.90
2022-12-29T06:40:10.264Z,1.97
2022-12-29T06:42:37.970Z,1.63
2022-12-29T06:45:08.383Z,2.43
2022-12-29T06:47:35.902Z,2.20
2022-12-29T06:50:04.544Z,2.03
2022-12-29T06:52:31.991Z,4.77
2022-12-29T06:54:59.894Z,1.93
2022-12-29T06:57:28.085Z,2.00
2022-12-29T06:59:56.584Z,1.50
2022-12-29T07:02:26.361Z,2.27
2022-12-29T07:04:54.321Z,1.90
2022-12-29T07:07:21.768Z,1.97
2022-12-29T07:09:49.302Z,2.27
2022-12-29T07:12:16.935Z,3.30
2022-12-29T07:14:44.872Z,2.57
2022-12-29T07:17:12.572Z,2.60
2022-12-29T07:19:41.334Z,2.47
2022-12-29T07:22:08.786Z,2.40
2022-12-29T07:24:36.258Z,2.77
2022-12-29T07:27:03.723Z,2.37
2022-12-29T07:29:31.116Z,1.53
2022-12-29T07:31:58.603Z,4.27
2022-12-29T07:34:26.044Z,3.03
2022-12-29T07:36:54.806Z,3.40
2022-12-29T07:39:22.254Z,1.50
2022-12-29T07:41:49.703Z,2.87
2022-12-29T07:44:17.160Z,2.17
2022-12-29T07:46:56.104Z,4.57
2022-12-29T07:49:24.706Z,2.20
2022-12-29T07:51:52.133Z,2.07
2022-12-29T07:54:20.886Z,1.57
2022-12-29T07:56:48.321Z,2.00
2022-12-29T07:59:15.809Z,1.90
2022-12-29T08:01:43.327Z,2.57
2022-12-29T08:04:10.912Z,4.87
2022-12-29T08:06:38.832Z,2.77
2022-12-29T08:09:16.471Z,2.20
2022-12-29T08:11:48.428Z,1.97
2022-12-29T08:14:15.861Z,2.00
2022-12-29T08:16:43.274Z,2.10
2022-12-29T08:19:12.088Z,2.87
2022-12-29T08:21:39.960Z,1.73
2022-12-29T08:24:08.220Z,3.57
2022-12-29T08:26:35.849Z,2.07
2022-12-29T08:29:04.913Z,1.93
2022-12-29T08:31:32.392Z,1.50
2022-12-29T08:34:00.951Z,2.17
2022-12-29T08:36:28.401Z,2.07
2022-12-29T08:38:55.871Z,2.73
2022-12-29T08:41:23.389Z,1.73
2022-12-29T08:43:51.581Z,3.40
2022-12-29T08:46:20.473Z,2.17
2022-12-29T08:48:47.959Z,2.50
2022-12-29T08:51:17.258Z,2.87
2022-12-29T08:53:46.515Z,3.70
2022-12-29T08:56:14.183Z,4.07
2022-12-29T08:58:41.991Z,2.23
2022-12-29T09:01:09.450Z,3.90
2022-12-29T09:04:13.066Z,1.77
2022-12-29T09:06:25.736Z,1.87
2022-12-29T09:08:55.708Z,4.73
2022-12-29T09:11:26.458Z,3.37
2022-12-29T09:13:54.866Z,1.27
2022-12-29T09:16:24.471Z,2.87
2022-12-29T09:18:53.366Z,3.27
2022-12-29T09:21:20.966Z,1.63
2022-12-29T09:23:49.393Z,2.07
2022-12-29T09:26:16.874Z,2.20
2022-12-29T09:28:45.248Z,1.90
2022-12-29T09:31:12.864Z,1.40
2022-12-29T09:33:40.454Z,1.47
2022-12-29T09:36:10.667Z,8.53
2022-12-29T09:38:38.155Z,12.87
2022-12-29T09:41:13.221Z,9.67
2022-12-29T09:44:08.354Z,6.57
2022-12-29T09:46:39.150Z,5.60
2022-12-29T09:49:16.495Z,3.17
2022-12-29T09:51:50.031Z,1.90
2022-12-29T09:54:31.699Z,1.40
2022-12-29T09:56:59.559Z,3.33
2022-12-29T09:59:32.903Z,1.73
2022-12-29T10:02:14.819Z,3.37
2022-12-29T10:04:44.162Z,3.40
2022-12-29T10:07:29.610Z,1.63
2022-12-29T10:10:05.063Z,2.53
2022-12-29T10:12:49.194Z,2.13
2022-12-29T10:15:31.917Z,1.80
2022-12-29T10:18:08.339Z,2.63
2022-12-29T10:20:43.869Z,1.40
2022-12-29T10:23:28.748Z,3.50
2022-12-29T10:25:57.509Z,1.63
2022-12-29T10:28:35.286Z,2.93
2022-12-29T10:31:09.023Z,2.17
2022-12-29T10:33:39.500Z,2.60
2022-12-29T10:36:15.753Z,1.70
2022-12-29T10:38:52.273Z,2.63
2022-12-29T10:41:25.768Z,1.40
2022-12-29T10:43:56.179Z,1.73
2022-12-29T10:46:27.423Z,3.13
2022-12-29T10:48:54.875Z,2.17
2022-12-29T10:51:26.246Z,1.40
2022-12-29T10:54:00.026Z,2.73
2022-12-29T10:56:34.575Z,2.13
2022-12-29T10:59:12.496Z,2.57
2022-12-29T11:01:47.898Z,2.60
2022-12-29T11:04:30.496Z,2.80
2022-12-29T11:06:59.115Z,4.13
2022-12-29T11:09:42.174Z,2.77
2022-12-29T11:12:22.588Z,2.73
2022-12-29T11:15:03.689Z,2.80
2022-12-29T11:17:31.143Z,1.60
2022-12-29T11:19:58.572Z,1.60
2022-12-29T11:22:30.172Z,5.90
2022-12-29T11:25:14.205Z,2.83
2022-12-29T11:27:56.474Z,1.47
2022-12-29T11:30:25.831Z,2.67
2022-12-29T11:32:54.481Z,2.20
2022-12-29T11:35:32.760Z,1.30
2022-12-29T11:38:01.239Z,3.87
2022-12-29T11:40:30.477Z,2.20
2022-12-29T11:43:00.528Z,2.67
2022-12-29T11:45:29.907Z,1.50
2022-12-29T11:48:00.872Z,2.23
2022-12-29T11:50:31.300Z,1.30
2022-12-29T11:53:02.129Z,2.87
2022-12-29T11:55:32.484Z,3.07
2022-12-29T11:58:04.537Z,2.77
2022-12-29T12:00:36.551Z,2.83
2022-12-29T12:03:06.470Z,1.63
2022-12-29T12:05:40.320Z,1.10
2022-12-29T12:08:20.724Z,1.43
2022-12-29T12:10:54.953Z,1.93
2022-12-29T12:13:27.658Z,2.83
2022-12-29T12:16:01.549Z,3.10
2022-12-29T12:18:37.675Z,2.70
2022-12-29T12:21:15.456Z,1.77
2022-12-29T12:23:58.249Z,1.10
2022-12-29T12:26:33.681Z,2.87
2022-12-29T12:29:06.885Z,1.40
2022-12-29T12:31:45.838Z,1.50
2022-12-29T12:34:19.073Z,3.17
2022-12-29T12:37:11.394Z,1.23
2022-12-29T12:39:49.557Z,1.37
2022-12-29T12:42:33.369Z,1.10
2022-12-29T12:45:19.418Z,1.20
2022-12-29T12:48:10.101Z,2.00
2022-12-29T12:50:51.145Z,2.43
2022-12-29T12:53:36.576Z,2.50
2022-12-29T12:56:23.999Z,4.03
2022-12-29T12:59:08.949Z,2.60
2022-12-29T13:01:44.039Z,1.87
2022-12-29T13:04:35.219Z,4.07
2022-12-29T13:07:12.255Z,1.60
2022-12-29T13:09:54.635Z,1.77
2022-12-29T13:12:33.029Z,1.87
2022-12-29T13:15:14.315Z,2.20
2022-12-29T13:17:47.819Z,4.50
2022-12-29T13:20:26.908Z,1.70
2022-12-29T13:23:00.107Z,3.33
2022-12-29T13:25:35.652Z,3.17
2022-12-29T13:28:12.485Z,2.10
2022-12-29T13:30:50.708Z,1.60
2022-12-29T13:33:27.032Z,1.90
2022-12-29T13:36:00.788Z,2.03
2022-12-29T13:38:34.418Z,1.30
2022-12-29T13:41:06.741Z,1.13
2022-12-29T13:43:40.544Z,2.90
2022-12-29T13:46:15.061Z,3.17
2022-12-29T13:48:47.828Z,6.00
2022-12-29T13:51:19.200Z,1.37
2022-12-29T13:54:11.802Z,3.93
2022-12-29T13:56:42.436Z,1.40
2022-12-29T13:59:18.370Z,2.37
2022-12-29T14:01:55.103Z,3.90
2022-12-29T14:04:25.971Z,7.67
2022-12-29T14:07:05.621Z,14.37
2022-12-29T14:09:45.258Z,3.77
2022-12-29T14:12:32.427Z,2.50
2022-12-29T14:15:16.355Z,3.40
2022-12-29T14:17:45.977Z,2.63
2022-12-29T14:20:21.824Z,2.60
2022-12-29T14:22:59.698Z,3.33
2022-12-29T14:25:59.246Z,4.17
2022-12-29T14:28:29.432Z,5.70
2022-12-29T14:30:58.082Z,2.47
2022-12-29T14:33:29.567Z,2.70
2022-12-29T14:35:57.515Z,58.23
2022-12-29T14:38:30.759Z,81.47
2022-12-29T14:41:20.897Z,71.80
2022-12-29T14:44:12.653Z,8.17
2022-12-29T14:46:50.067Z,6.07
2022-12-29T14:49:22.526Z,4.80
2022-12-29T14:51:52.646Z,3.10
2022-12-29T14:54:50.959Z,4.03
2022-12-29T14:57:26.980Z,4.17
2022-12-29T14:59:57.995Z,4.90
2022-12-29T15:02:27.927Z,3.27
2022-12-29T15:05:01.811Z,3.53
2022-12-29T15:07:31.218Z,2.37
2022-12-29T15:10:05.616Z,3.07
2022-12-29T15:12:40.328Z,2.50
2022-12-29T15:15:22.910Z,1.77
2022-12-29T15:17:50.313Z,4.00
2022-12-29T15:20:25.598Z,2.67
2022-12-29T15:22:57.416Z,2.80
2022-12-29T15:25:27.159Z,2.87
2022-12-29T15:27:59.007Z,1.13
2022-12-29T15:30:26.584Z,3.33
2022-12-29T15:32:54.082Z,2.73
2022-12-29T15:35:33.435Z,3.10
2022-12-29T15:38:04.187Z,2.43
2022-12-29T15:40:33.766Z,2.73
2022-12-29T15:43:26.041Z,2.97
2022-12-29T15:45:56.141Z,2.53
2022-12-29T15:48:26.299Z,2.83
2022-12-29T15:50:55.388Z,6.17
2022-12-29T15:53:29.146Z,4.73
2022-12-29T15:56:03.211Z,8.50
2022-12-29T15:58:32.797Z,4.97
2022-12-29T16:01:03.016Z,3.40
2022-12-29T16:03:34.673Z,5.43
2022-12-29T16:06:25.421Z,7.83
2022-12-29T16:08:58.520Z,8.40
2022-12-29T16:11:29.800Z,8.20
2022-12-29T16:13:58.147Z,3.50
2022-12-29T16:16:29.875Z,3.57
2022-12-29T16:18:58.642Z,3.00
2022-12-29T16:21:31.634Z,3.30
2022-12-29T16:24:03.325Z,2.70
2022-12-29T16:26:31.036Z,4.20
2022-12-29T16:29:00.434Z,4.50
2022-12-29T16:31:35.933Z,4.53
2022-12-29T16:34:13.543Z,4.43
2022-12-29T16:36:55.732Z,3.80
2022-12-29T16:39:29.107Z,5.47
2022-12-29T16:41:57.132Z,3.67
2022-12-29T16:44:27.489Z,4.40
2022-12-29T16:47:08.297Z,3.37
2022-12-29T16:49:37.669Z,4.47
2022-12-29T16:52:15.794Z,6.50
2022-12-29T16:54:44.330Z,3.40
2022-12-29T16:57:12.821Z,8.50
2022-12-29T16:59:43.468Z,13.13
2022-12-29T17:02:16.166Z,4.93
2022-12-29T17:04:44.853Z,3.47
2022-12-29T17:07:18.499Z,5.03
2022-12-29T17:09:46.108Z,3.37
2022-12-29T17:12:18.171Z,4.67
2022-12-29T17:14:48.190Z,6.43
2022-12-29T17:17:19.050Z,5.40
2022-12-29T17:19:49.301Z,4.83
2022-12-29T17:22:22.487Z,9.47
2022-12-29T17:24:50.394Z,4.50
2022-12-29T17:27:24.453Z,5.23
2022-12-29T17:29:53.960Z,3.97
2022-12-29T17:32:21.776Z,3.33
2022-12-29T17:34:49.163Z,4.97
2022-12-29T17:37:37.851Z,4.30
2022-12-29T17:40:07.687Z,3.67
2022-12-29T17:42:39.252Z,3.43
2022-12-29T17:45:07.574Z,4.80
2022-12-29T17:47:34.968Z,7.43
2022-12-29T17:50:02.473Z,9.97
2022-12-29T17:52:29.900Z,6.07
2022-12-29T17:54:58.691Z,5.57
2022-12-29T17:57:26.163Z,3.37
2022-12-29T17:59:53.578Z,7.87
2022-12-29T18:02:26.632Z,8.30
2022-12-29T18:04:54.619Z,8.63
2022-12-29T18:07:23.016Z,6.50
2022-12-29T18:09:50.529Z,8.70
2022-12-29T18:12:32.100Z,6.07
2022-12-29T18:14:59.645Z,10.27
2022-12-29T18:17:27.080Z,6.07
2022-12-29T18:19:55.649Z,6.10
2022-12-29T18:22:24.760Z,4.27
2022-12-29T18:24:52.661Z,8.77
2022-12-29T18:27:22.236Z,8.30
2022-12-29T18:29:51.266Z,5.47
2022-12-29T18:32:19.615Z,5.73
2022-12-29T18:34:47.264Z,4.03
2022-12-29T18:37:14.819Z,3.60
2022-12-29T18:39:42.245Z,6.40
2022-12-29T18:42:10.930Z,4.40
2022-12-29T18:44:38.650Z,9.20
2022-12-29T18:47:07.921Z,15.53
2022-12-29T18:49:35.352Z,8.27
2022-12-29T18:52:02.750Z,5.00
2022-12-29T18:54:32.148Z,4.73
2022-12-29T18:57:00.284Z,5.03
2022-12-29T18:59:27.751Z,13.97
2022-12-29T19:01:55.188Z,35.73
2022-12-29T19:04:24.109Z,13.50
2022-12-29T19:06:51.520Z,15.83
2022-12-29T19:09:18.990Z,21.77
2022-12-29T19:11:46.398Z,26.97
2022-12-29T19:14:17.296Z,20.17
2022-12-29T19:16:50.696Z,7.47
2022-12-29T19:19:18.137Z,9.93
2022-12-29T19:21:46.931Z,16.83
2022-12-29T19:24:14.353Z,33.93
2022-12-29T19:26:42.173Z,28.37
2022-12-29T19:29:15.352Z,10.60
2022-12-29T19:31:42.886Z,12.03
2022-12-29T19:34:14.039Z,23.53
2022-12-29T19:36:41.588Z,17.87
2022-12-29T19:39:10.473Z,10.73
2022-12-29T19:41:38.185Z,12.67
2022-12-29T19:44:05.764Z,4.13
2022-12-29T19:46:33.143Z,3.50
2022-12-29T19:49:01.022Z,3.37
2022-12-29T19:51:28.784Z,7.20
2022-12-29T19:53:58.380Z,11.70
2022-12-29T19:56:27.137Z,14.33
2022-12-29T19:58:54.575Z,11.23
2022-12-29T20:01:23.874Z,8.20
2022-12-29T20:03:52.602Z,4.60
2022-12-29T20:06:20.418Z,5.90
2022-12-29T20:08:47.856Z,13.03
2022-12-29T20:11:17.167Z,13.43
2022-12-29T20:13:46.926Z,24.33
2022-12-29T20:16:16.052Z,16.43
2022-12-29T20:18:43.826Z,5.13
2022-12-29T20:21:14.712Z,10.67
2022-12-29T20:23:43.688Z,8.83
2022-12-29T20:26:15.722Z,32.43
2022-12-29T20:28:43.272Z,14.53
2022-12-29T20:31:18.284Z,11.90
2022-12-29T20:33:46.381Z,14.03
2022-12-29T20:36:17.042Z,8.53
2022-12-29T20:38:45.659Z,28.67
2022-12-29T20:41:14.269Z,7.00
2022-12-29T20:43:42.456Z,16.60
2022-12-29T20:46:11.193Z,19.37
2022-12-29T20:48:39.961Z,17.70
2022-12-29T20:51:07.491Z,12.93
2022-12-29T20:53:38.000Z,8.77
2022-12-29T20:56:07.701Z,5.57
2022-12-29T20:58:52.579Z,5.43
2022-12-29T21:01:25.685Z,3.17
2022-12-29T21:03:54.635Z,4.83
2022-12-29T21:06:22.329Z,3.13
2022-12-29T21:08:50.065Z,5.70
2022-12-29T21:11:17.881Z,7.67
2022-12-29T21:13:45.999Z,8.63
2022-12-29T21:16:14.982Z,9.77
2022-12-29T21:18:43.016Z,9.37
2022-12-29T21:21:16.782Z,4.90
2022-12-29T21:23:44.250Z,6.23
2022-12-29T21:26:12.758Z,6.33
2022-12-29T21:28:41.556Z,4.80
2022-12-29T21:31:10.018Z,7.83
2022-12-29T21:33:38.413Z,7.10
2022-12-29T21:36:07.377Z,6.17
2022-12-29T21:38:36.843Z,7.83
2022-12-29T21:41:08.685Z,6.00
2022-12-29T21:43:36.873Z,6.83
2022-12-29T21:46:03.826Z,8.93
2022-12-29T21:48:31.417Z,5.40
2022-12-29T21:51:29.935Z,6.63
2022-12-29T21:54:21.348Z,7.20
2022-12-29T21:56:49.690Z,13.30
2022-12-29T21:59:35.400Z,9.53
2022-12-29T22:02:21.969Z,6.20
2022-12-29T22:05:07.775Z,7.93
2022-12-29T22:07:52.657Z,13.03
2022-12-29T22:10:39.152Z,8.10
2022-12-29T22:13:06.550Z,7.80
2022-12-29T22:15:36.376Z,12.27
2022-12-29T22:18:05.155Z,6.37
2022-12-29T22:20:34.578Z,5.43
2022-12-29T22:23:03.303Z,3.97
2022-12-29T22:25:32.205Z,5.40
2022-12-29T22:28:00.190Z,10.23
2022-12-29T22:30:27.966Z,5.47
2022-12-29T22:32:56.575Z,5.00
2022-12-29T22:35:24.760Z,7.87
2022-12-29T22:37:52.253Z,5.43
2022-12-29T22:40:20.149Z,6.47
2022-12-29T22:42:48.954Z,5.63
2022-12-29T22:45:16.792Z,10.47
2022-12-29T22:47:44.384Z,12.13
2022-12-29T22:50:11.941Z,5.63
2022-12-29T22:52:39.373Z,8.50
2022-12-29T22:55:08.398Z,6.77
2022-12-29T22:57:36.388Z,6.60
2022-12-29T23:00:09.023Z,4.63
2022-12-29T23:02:36.858Z,7.83
2022-12-29T23:05:05.450Z,9.30
2022-12-29T23:07:34.141Z,7.10
2022-12-29T23:10:01.636Z,5.93
2022-12-29T23:12:30.738Z,5.37
2022-12-29T23:14:58.235Z,6.97
2022-12-29T23:17:27.351Z,7.13
2022-12-29T23:19:55.214Z,5.67
2022-12-29T23:22:23.194Z,13.53
2022-12-29T23:24:50.628Z,5.33
2022-12-29T23:27:18.175Z,5.60
2022-12-29T23:29:45.625Z,12.47
2022-12-29T23:32:13.125Z,11.00
2022-12-29T23:34:41.966Z,7.27
2022-12-29T23:37:09.428Z,22.57
2022-12-29T23:39:36.886Z,8.70
2022-12-29T23:42:04.445Z,4.40
2022-12-29T23:44:31.878Z,8.03
2022-12-29T23:46:59.396Z,3.60
2022-12-29T23:49:26.891Z,4.83
2022-12-29T23:51:55.681Z,4.47
2022-12-29T23:54:23.089Z,6.77
2022-12-29T23:56:50.493Z,8.07
2022-12-29T23:59:17.899Z,7.27
